createdAt,value
2017-09-24T00:00:48.032Z,23.1
2017-09-24T00:02:00.191Z,23.1
2017-09-24T00:03:05.790Z,23.1
2017-09-24T00:04:13.869Z,23.1
2017-09-24T00:05:21.959Z,23.0
2017-09-24T00:06:30.046Z,23.1
2017-09-24T00:07:38.133Z,23.0
2017-09-24T00:08:46.225Z,23.0
2017-09-24T00:09:54.319Z,23.1
2017-09-24T00:11:02.404Z,23.1
2017-09-24T00:12:10.491Z,23.0
2017-09-24T00:13:18.582Z,23.0
2017-09-24T00:14:26.668Z,23.1
2017-09-24T00:15:34.865Z,23.0
2017-09-24T00:16:42.953Z,23.0
2017-09-24T00:17:51.041Z,23.1
2017-09-24T00:18:59.128Z,23.0
2017-09-24T00:20:07.216Z,23.0
2017-09-24T00:21:15.303Z,23.0
2017-09-24T00:22:23.391Z,23.0
2017-09-24T00:23:31.492Z,23.0
2017-09-24T00:24:39.576Z,23.0
2017-09-24T00:25:47.659Z,23.0
2017-09-24T00:26:55.748Z,22.9
2017-09-24T00:28:03.840Z,23.0
2017-09-24T00:29:11.929Z,22.9
2017-09-24T00:30:20.025Z,23.0
2017-09-24T00:31:28.115Z,22.9
2017-09-24T00:32:36.203Z,23.0
2017-09-24T00:33:44.290Z,22.9
2017-09-24T00:34:52.378Z,23.0
2017-09-24T00:36:00.463Z,22.9
2017-09-24T00:37:08.552Z,22.9
2017-09-24T00:38:16.662Z,23.0
2017-09-24T00:39:24.742Z,23.0
2017-09-24T00:40:32.827Z,22.9
2017-09-24T00:41:40.970Z,22.9
2017-09-24T00:42:49.006Z,22.9
2017-09-24T00:43:57.091Z,22.9
2017-09-24T00:45:05.180Z,22.9
2017-09-24T00:46:13.276Z,22.9
2017-09-24T00:47:21.369Z,22.9
2017-09-24T00:48:29.451Z,22.9
2017-09-24T00:49:37.537Z,22.9
2017-09-24T00:50:45.633Z,22.8
2017-09-24T00:51:53.723Z,22.8
2017-09-24T00:53:01.898Z,22.9
2017-09-24T00:54:09.898Z,22.9
2017-09-24T00:55:17.985Z,22.8
2017-09-24T00:56:26.074Z,22.9
2017-09-24T00:57:34.160Z,22.9
2017-09-24T00:58:42.249Z,22.9
2017-09-24T00:59:50.342Z,22.8
2017-09-24T01:00:58.425Z,22.9
2017-09-24T01:02:06.514Z,22.8
2017-09-24T01:03:14.601Z,22.9
2017-09-24T01:04:22.689Z,22.8
2017-09-24T01:05:30.776Z,22.8
2017-09-24T01:06:38.865Z,22.8
2017-09-24T01:07:46.951Z,22.8
2017-09-24T01:08:55.040Z,22.8
2017-09-24T01:10:03.171Z,22.7
2017-09-24T01:11:11.260Z,22.8
2017-09-24T01:12:19.349Z,22.8
2017-09-24T01:13:27.435Z,22.8
2017-09-24T01:14:35.523Z,22.8
2017-09-24T01:15:43.614Z,22.8
2017-09-24T01:16:51.699Z,22.8
2017-09-24T01:17:59.786Z,22.8
2017-09-24T01:19:07.875Z,22.8
2017-09-24T01:20:15.970Z,22.8
2017-09-24T01:21:24.050Z,22.8
2017-09-24T01:22:32.136Z,22.8
2017-09-24T01:23:40.225Z,22.8
2017-09-24T01:24:48.330Z,22.8
2017-09-24T01:25:56.406Z,22.8
2017-09-24T01:27:04.489Z,22.7
2017-09-24T01:28:12.599Z,22.7
2017-09-24T01:29:20.669Z,22.8
2017-09-24T01:30:28.757Z,22.7
2017-09-24T01:31:36.892Z,22.7
2017-09-24T01:32:44.934Z,22.8
2017-09-24T01:33:53.021Z,22.7
2017-09-24T01:35:01.106Z,22.6
2017-09-24T01:36:09.201Z,22.6
2017-09-24T01:37:17.668Z,22.7
2017-09-24T01:38:25.371Z,22.7
2017-09-24T01:39:33.481Z,22.6
2017-09-24T01:40:41.545Z,22.7
2017-09-24T01:41:49.633Z,22.6
2017-09-24T01:42:57.724Z,22.7
2017-09-24T01:44:05.816Z,22.6
2017-09-24T01:45:13.898Z,22.6
2017-09-24T01:46:21.983Z,22.7
2017-09-24T01:47:30.074Z,22.6
2017-09-24T01:48:38.159Z,22.6
2017-09-24T01:49:46.247Z,22.6
2017-09-24T01:50:54.335Z,22.6
2017-09-24T01:52:02.426Z,22.6
2017-09-24T01:53:10.510Z,22.6
2017-09-24T01:54:18.600Z,22.6
2017-09-24T01:55:26.686Z,22.6
2017-09-24T01:56:34.771Z,22.6
2017-09-24T01:57:42.901Z,22.6
2017-09-24T01:58:50.949Z,22.6
2017-09-24T01:59:59.035Z,22.6
2017-09-24T02:01:07.125Z,22.6
2017-09-24T02:02:15.231Z,22.6
2017-09-24T02:03:23.300Z,22.5
2017-09-24T02:04:31.410Z,22.5
2017-09-24T02:05:39.479Z,22.6
2017-09-24T02:06:47.560Z,22.5
2017-09-24T02:07:55.648Z,22.6
2017-09-24T02:09:03.740Z,22.6
2017-09-24T02:10:11.827Z,22.6
2017-09-24T02:11:20.030Z,22.6
2017-09-24T02:12:28.116Z,22.6
2017-09-24T02:13:36.206Z,22.6
2017-09-24T02:14:44.293Z,22.5
2017-09-24T02:15:52.381Z,22.5
2017-09-24T02:17:00.470Z,22.5
2017-09-24T02:18:08.558Z,22.5
2017-09-24T02:19:16.642Z,22.5
2017-09-24T02:20:24.820Z,22.5
2017-09-24T02:21:32.817Z,22.5
2017-09-24T02:22:40.905Z,22.5
2017-09-24T02:23:48.992Z,22.5
2017-09-24T02:24:57.081Z,22.5
2017-09-24T02:26:05.170Z,22.5
2017-09-24T02:27:13.256Z,22.5
2017-09-24T02:28:21.341Z,22.5
2017-09-24T02:29:29.429Z,22.5
2017-09-24T02:30:37.526Z,22.4
2017-09-24T02:31:45.614Z,22.4
2017-09-24T02:32:53.700Z,22.4
2017-09-24T02:34:01.789Z,22.4
2017-09-24T02:35:09.874Z,22.4
2017-09-24T02:36:17.961Z,22.3
2017-09-24T02:37:26.049Z,22.4
2017-09-24T02:38:34.230Z,22.4
2017-09-24T02:39:42.224Z,22.4
2017-09-24T02:40:50.312Z,22.4
2017-09-24T02:41:58.406Z,22.4
2017-09-24T02:43:06.486Z,22.3
2017-09-24T02:44:14.573Z,22.4
2017-09-24T02:45:22.660Z,22.3
2017-09-24T02:46:30.747Z,22.3
2017-09-24T02:47:38.839Z,22.3
2017-09-24T02:48:46.927Z,22.3
2017-09-24T02:49:55.013Z,22.3
2017-09-24T02:51:03.102Z,22.3
2017-09-24T02:52:11.188Z,22.2
2017-09-24T02:53:19.279Z,22.3
2017-09-24T02:54:27.376Z,22.3
2017-09-24T02:55:35.462Z,22.2
2017-09-24T02:56:43.546Z,22.3
2017-09-24T02:57:51.636Z,22.2
2017-09-24T02:58:59.734Z,22.2
2017-09-24T03:00:07.810Z,22.2
2017-09-24T03:01:15.955Z,22.3
2017-09-24T03:02:23.983Z,22.3
2017-09-24T03:03:32.092Z,22.2
2017-09-24T03:04:40.182Z,22.1
2017-09-24T03:05:48.270Z,22.2
2017-09-24T03:06:56.353Z,22.2
2017-09-24T03:08:04.437Z,22.2
2017-09-24T03:09:12.525Z,22.1
2017-09-24T03:10:20.614Z,22.2
2017-09-24T03:11:28.718Z,22.1
2017-09-24T03:12:36.788Z,22.1
2017-09-24T03:13:44.876Z,22.1
2017-09-24T03:14:52.966Z,22.0
2017-09-24T03:16:01.051Z,22.1
2017-09-24T03:17:09.135Z,22.0
2017-09-24T03:18:17.220Z,22.1
2017-09-24T03:19:25.309Z,22.1
2017-09-24T03:20:33.395Z,22.1
2017-09-24T03:21:41.492Z,22.1
2017-09-24T03:22:49.578Z,22.1
2017-09-24T03:23:57.667Z,22.0
2017-09-24T03:25:05.747Z,22.0
2017-09-24T03:26:13.838Z,22.1
2017-09-24T03:27:21.926Z,22.0
2017-09-24T03:28:30.020Z,22.0
2017-09-24T03:29:38.098Z,22.0
2017-09-24T03:30:46.184Z,22.0
2017-09-24T03:31:54.273Z,22.1
2017-09-24T03:33:02.361Z,22.0
2017-09-24T03:34:10.446Z,22.1
2017-09-24T03:35:18.531Z,22.0
2017-09-24T03:36:26.620Z,22.0
2017-09-24T03:37:34.711Z,21.9
2017-09-24T03:38:42.794Z,22.0
2017-09-24T03:39:50.880Z,21.9
2017-09-24T03:40:58.967Z,22.0
2017-09-24T03:42:07.054Z,22.0
2017-09-24T03:43:15.144Z,21.9
2017-09-24T03:44:23.227Z,22.0
2017-09-24T03:45:31.312Z,21.9
2017-09-24T03:46:39.401Z,21.9
2017-09-24T03:47:47.509Z,21.9
2017-09-24T03:48:55.573Z,21.9
2017-09-24T03:50:03.660Z,21.9
2017-09-24T03:51:11.754Z,21.9
2017-09-24T03:52:19.833Z,21.9
2017-09-24T03:53:27.930Z,21.9
2017-09-24T03:54:36.017Z,21.9
2017-09-24T03:55:44.103Z,21.8
2017-09-24T03:56:52.210Z,21.8
2017-09-24T03:58:00.281Z,21.8
2017-09-24T03:59:08.372Z,21.9
2017-09-24T04:00:16.517Z,21.8
2017-09-24T04:01:24.606Z,21.9
2017-09-24T04:02:32.691Z,21.8
2017-09-24T04:03:40.779Z,21.8
2017-09-24T04:04:48.873Z,21.8
2017-09-24T04:05:56.959Z,21.8
2017-09-24T04:07:05.048Z,21.8
2017-09-24T04:08:13.132Z,21.8
2017-09-24T04:09:21.240Z,21.8
2017-09-24T04:10:29.327Z,21.7
2017-09-24T04:11:37.415Z,21.8
2017-09-24T04:12:45.502Z,21.8
2017-09-24T04:13:53.591Z,21.8
2017-09-24T04:15:01.677Z,21.7
2017-09-24T04:16:09.769Z,21.8
2017-09-24T04:17:17.858Z,21.7
2017-09-24T04:18:25.945Z,21.7
2017-09-24T04:19:34.030Z,21.7
2017-09-24T04:20:42.117Z,21.7
2017-09-24T04:21:50.204Z,21.7
2017-09-24T04:22:58.290Z,21.7
2017-09-24T04:24:06.410Z,21.7
2017-09-24T04:25:14.466Z,21.7
2017-09-24T04:26:22.556Z,21.8
2017-09-24T04:27:30.641Z,21.7
2017-09-24T04:28:38.803Z,21.7
2017-09-24T04:29:46.812Z,21.7
2017-09-24T04:30:54.900Z,21.6
2017-09-24T04:32:02.987Z,21.6
2017-09-24T04:33:11.082Z,21.8
2017-09-24T04:34:19.160Z,21.6
2017-09-24T04:35:27.248Z,21.6
2017-09-24T04:36:35.335Z,21.7
2017-09-24T04:37:43.429Z,21.6
2017-09-24T04:38:51.507Z,21.6
2017-09-24T04:39:59.597Z,21.6
2017-09-24T04:41:07.689Z,21.7
2017-09-24T04:42:15.772Z,21.7
2017-09-24T04:43:23.859Z,21.6
2017-09-24T04:44:31.971Z,21.6
2017-09-24T04:45:40.046Z,21.6
2017-09-24T04:46:48.130Z,21.6
2017-09-24T04:47:56.213Z,21.6
2017-09-24T04:49:04.299Z,21.6
2017-09-24T04:50:12.389Z,21.6
2017-09-24T04:51:20.484Z,21.6
2017-09-24T04:52:28.577Z,21.6
2017-09-24T04:53:36.659Z,21.6
2017-09-24T04:54:44.746Z,21.6
2017-09-24T04:55:52.833Z,21.7
2017-09-24T04:57:00.919Z,21.6
2017-09-24T04:58:09.007Z,21.6
2017-09-24T04:59:17.095Z,21.6
2017-09-24T05:00:25.180Z,21.6
2017-09-24T05:01:33.272Z,21.6
2017-09-24T05:02:41.355Z,21.6
2017-09-24T05:03:49.441Z,21.6
2017-09-24T05:04:57.529Z,21.7
2017-09-24T05:06:05.616Z,21.6
2017-09-24T05:07:13.704Z,21.6
2017-09-24T05:08:21.794Z,21.5
2017-09-24T05:09:29.877Z,21.6
2017-09-24T05:10:37.966Z,21.5
2017-09-24T05:11:46.051Z,21.6
2017-09-24T05:12:54.142Z,21.5
2017-09-24T05:14:02.225Z,21.6
2017-09-24T05:15:10.324Z,21.5
2017-09-24T05:16:18.400Z,21.5
2017-09-24T05:17:26.489Z,21.5
2017-09-24T05:18:34.575Z,21.5
2017-09-24T05:19:42.661Z,21.5
2017-09-24T05:20:50.753Z,21.5
2017-09-24T05:21:58.839Z,21.5
2017-09-24T05:23:06.923Z,21.5
2017-09-24T05:24:15.009Z,21.5
2017-09-24T05:25:23.097Z,21.5
2017-09-24T05:26:31.184Z,21.5
2017-09-24T05:27:39.269Z,21.4
2017-09-24T05:28:47.465Z,21.4
2017-09-24T05:29:55.445Z,21.4
2017-09-24T05:31:03.532Z,21.4
2017-09-24T05:32:11.622Z,21.4
2017-09-24T05:33:19.858Z,21.4
2017-09-24T05:34:27.793Z,21.4
2017-09-24T05:35:35.880Z,21.4
2017-09-24T05:36:43.966Z,21.4
2017-09-24T05:37:52.055Z,21.4
2017-09-24T05:39:00.141Z,21.4
2017-09-24T05:40:08.233Z,21.3
2017-09-24T05:41:16.320Z,21.4
2017-09-24T05:42:24.402Z,21.3
2017-09-24T05:43:33.167Z,21.3
2017-09-24T05:44:40.577Z,21.3
2017-09-24T05:45:48.665Z,21.4
2017-09-24T05:46:56.753Z,21.4
2017-09-24T05:48:04.838Z,21.4
2017-09-24T05:49:12.928Z,21.4
2017-09-24T05:50:21.014Z,21.4
2017-09-24T05:51:29.102Z,21.4
2017-09-24T05:52:37.186Z,21.4
2017-09-24T05:53:45.271Z,21.4
2017-09-24T05:54:54.051Z,21.4
2017-09-24T05:56:01.448Z,21.3
2017-09-24T05:57:09.953Z,21.3
2017-09-24T05:58:17.619Z,21.3
2017-09-24T05:59:25.705Z,21.4
2017-09-24T06:00:35.369Z,21.4
2017-09-24T06:01:41.881Z,21.3
2017-09-24T06:02:49.968Z,21.3
2017-09-24T06:03:58.054Z,21.3
2017-09-24T06:05:06.150Z,21.3
2017-09-24T06:06:14.226Z,21.3
2017-09-24T06:07:22.315Z,21.3
2017-09-24T06:08:30.401Z,21.3
2017-09-24T06:09:38.600Z,21.3
2017-09-24T06:10:46.578Z,21.4
2017-09-24T06:11:55.346Z,21.3
2017-09-24T06:13:02.748Z,21.3
2017-09-24T06:14:11.514Z,21.2
2017-09-24T06:15:18.929Z,21.2
2017-09-24T06:16:27.009Z,21.3
2017-09-24T06:17:35.281Z,21.2
2017-09-24T06:18:43.182Z,21.3
2017-09-24T06:19:51.427Z,21.3
2017-09-24T06:20:59.358Z,21.2
2017-09-24T06:22:07.618Z,21.4
2017-09-24T06:23:15.530Z,21.2
2017-09-24T06:24:23.842Z,21.2
2017-09-24T06:25:31.705Z,21.2
2017-09-24T06:26:39.790Z,21.2
2017-09-24T06:27:48.276Z,21.2
2017-09-24T06:28:56.788Z,21.1
2017-09-24T06:30:04.052Z,21.3
2017-09-24T06:31:12.248Z,21.2
2017-09-24T06:32:20.799Z,21.2
2017-09-24T06:33:28.922Z,21.1
2017-09-24T06:34:36.889Z,21.1
2017-09-24T06:35:44.826Z,21.2
2017-09-24T06:36:52.571Z,21.2
2017-09-24T06:38:00.913Z,21.1
2017-09-24T06:39:08.747Z,21.1
2017-09-24T06:40:17.092Z,21.2
2017-09-24T06:41:24.951Z,21.2
2017-09-24T06:42:33.041Z,21.2
2017-09-24T06:43:41.124Z,21.2
2017-09-24T06:44:49.499Z,21.2
2017-09-24T06:45:57.296Z,21.2
2017-09-24T06:47:05.582Z,21.2
2017-09-24T06:48:14.012Z,21.0
2017-09-24T06:49:21.598Z,21.2
2017-09-24T06:50:29.951Z,21.0
2017-09-24T06:51:37.997Z,21.1
2017-09-24T06:52:46.050Z,21.0
2017-09-24T06:53:53.975Z,21.1
2017-09-24T06:55:02.126Z,21.1
2017-09-24T06:56:10.190Z,21.0
2017-09-24T06:57:18.192Z,21.1
2017-09-24T06:58:26.249Z,21.1
2017-09-24T06:59:34.589Z,21.1
2017-09-24T07:00:42.423Z,21.0
2017-09-24T07:01:50.511Z,21.0
2017-09-24T07:02:58.595Z,21.1
2017-09-24T07:04:06.691Z,21.0
2017-09-24T07:05:14.767Z,21.0
2017-09-24T07:06:22.855Z,21.1
2017-09-24T07:07:31.065Z,21.1
2017-09-24T07:08:39.030Z,21.1
2017-09-24T07:09:47.127Z,21.1
2017-09-24T07:10:55.211Z,21.0
2017-09-24T07:12:03.296Z,21.1
2017-09-24T07:13:11.384Z,21.1
2017-09-24T07:14:19.470Z,21.0
2017-09-24T07:15:27.556Z,21.1
2017-09-24T07:16:35.643Z,21.1
2017-09-24T07:17:43.737Z,21.0
2017-09-24T07:18:51.817Z,21.0
2017-09-24T07:19:59.905Z,21.1
2017-09-24T07:21:07.992Z,21.1
2017-09-24T07:22:16.077Z,21.0
2017-09-24T07:23:24.173Z,21.1
2017-09-24T07:24:32.250Z,21.0
2017-09-24T07:25:40.337Z,21.1
2017-09-24T07:26:48.455Z,21.0
2017-09-24T07:27:56.518Z,21.0
2017-09-24T07:29:04.608Z,21.1
2017-09-24T07:30:12.693Z,21.0
2017-09-24T07:31:20.781Z,21.1
2017-09-24T07:32:28.866Z,21.0
2017-09-24T07:33:36.954Z,21.0
2017-09-24T07:34:45.041Z,21.1
2017-09-24T07:35:53.126Z,21.0
2017-09-24T07:37:01.216Z,21.1
2017-09-24T07:38:09.300Z,20.9
2017-09-24T07:39:17.387Z,20.9
2017-09-24T07:40:25.473Z,21.0
2017-09-24T07:41:33.558Z,21.0
2017-09-24T07:42:41.646Z,20.9
2017-09-24T07:43:49.731Z,21.0
2017-09-24T07:44:58.015Z,21.0
2017-09-24T07:46:06.220Z,20.9
2017-09-24T07:47:14.663Z,20.9
2017-09-24T07:48:22.472Z,20.9
2017-09-24T07:49:30.628Z,21.0
2017-09-24T07:50:38.570Z,20.9
2017-09-24T07:51:46.337Z,20.9
2017-09-24T07:52:54.872Z,21.0
2017-09-24T07:54:05.844Z,21.0
2017-09-24T07:55:11.250Z,20.9
2017-09-24T07:56:18.755Z,20.9
2017-09-24T07:57:26.805Z,20.9
2017-09-24T07:58:34.855Z,20.9
2017-09-24T07:59:42.941Z,20.9
2017-09-24T08:00:51.031Z,20.9
2017-09-24T08:01:59.115Z,21.0
2017-09-24T08:03:07.203Z,20.9
2017-09-24T08:04:15.290Z,20.9
2017-09-24T08:05:23.377Z,20.9
2017-09-24T08:06:31.463Z,20.9
2017-09-24T08:07:39.548Z,21.0
2017-09-24T08:08:47.637Z,20.9
2017-09-24T08:09:55.721Z,21.0
2017-09-24T08:11:03.807Z,20.9
2017-09-24T08:12:11.893Z,20.9
2017-09-24T08:13:19.984Z,20.9
2017-09-24T08:14:28.068Z,21.0
2017-09-24T08:15:36.155Z,20.9
2017-09-24T08:16:44.245Z,20.9
2017-09-24T08:17:52.329Z,20.9
2017-09-24T08:19:00.416Z,20.9
2017-09-24T08:20:08.503Z,20.9
2017-09-24T08:21:16.591Z,20.9
2017-09-24T08:22:24.677Z,20.9
2017-09-24T08:23:32.763Z,20.9
2017-09-24T08:24:40.857Z,20.9
2017-09-24T08:25:48.955Z,20.9
2017-09-24T08:26:57.037Z,20.9
2017-09-24T08:28:05.128Z,21.0
2017-09-24T08:29:13.210Z,20.9
2017-09-24T08:30:21.296Z,20.9
2017-09-24T08:31:29.383Z,20.9
2017-09-24T08:32:37.471Z,20.9
2017-09-24T08:33:45.559Z,20.9
2017-09-24T08:34:53.645Z,20.9
2017-09-24T08:36:01.729Z,20.9
2017-09-24T08:37:09.815Z,20.9
2017-09-24T08:38:17.902Z,20.9
2017-09-24T08:39:26.000Z,20.9
2017-09-24T08:40:34.085Z,20.9
2017-09-24T08:41:42.172Z,20.9
2017-09-24T08:42:50.258Z,20.9
2017-09-24T08:43:58.343Z,21.0
2017-09-24T08:45:06.446Z,20.9
2017-09-24T08:46:14.522Z,20.9
2017-09-24T08:47:22.603Z,20.9
2017-09-24T08:48:30.689Z,20.9
2017-09-24T08:49:38.776Z,20.9
2017-09-24T08:50:46.864Z,20.9
2017-09-24T08:51:54.953Z,20.9
2017-09-24T08:53:03.038Z,20.9
2017-09-24T08:54:11.122Z,20.9
2017-09-24T08:55:19.207Z,20.9
2017-09-24T08:56:27.294Z,20.9
2017-09-24T08:57:35.386Z,20.9
2017-09-24T08:58:43.480Z,20.9
2017-09-24T08:59:51.566Z,20.9
2017-09-24T09:00:59.658Z,20.9
2017-09-24T09:02:07.740Z,20.9
2017-09-24T09:03:15.826Z,20.9
2017-09-24T09:04:23.916Z,21.0
2017-09-24T09:05:32.006Z,20.9
2017-09-24T09:06:40.090Z,20.9
2017-09-24T09:07:48.183Z,20.9
2017-09-24T09:08:56.260Z,20.9
2017-09-24T09:10:04.356Z,20.9
2017-09-24T09:11:12.434Z,21.0
2017-09-24T09:12:20.522Z,20.9
2017-09-24T09:13:28.610Z,20.9
2017-09-24T09:14:36.693Z,20.9
2017-09-24T09:15:44.802Z,20.9
2017-09-24T09:16:52.885Z,20.9
2017-09-24T09:18:00.975Z,21.0
2017-09-24T09:19:09.061Z,20.9
2017-09-24T09:20:17.236Z,20.9
2017-09-24T09:21:25.235Z,20.9
2017-09-24T09:22:33.325Z,21.0
2017-09-24T09:23:41.406Z,21.0
2017-09-24T09:24:49.499Z,21.0
2017-09-24T09:25:57.585Z,21.0
2017-09-24T09:27:05.671Z,21.0
2017-09-24T09:28:13.751Z,21.0
2017-09-24T09:29:21.839Z,21.1
2017-09-24T09:30:29.928Z,21.0
2017-09-24T09:31:38.017Z,21.0
2017-09-24T09:32:46.102Z,21.0
2017-09-24T09:33:54.187Z,21.0
2017-09-24T09:35:02.276Z,21.1
2017-09-24T09:36:10.360Z,21.1
2017-09-24T09:37:18.444Z,21.0
2017-09-24T09:38:26.535Z,21.0
2017-09-24T09:39:34.617Z,21.1
2017-09-24T09:40:42.705Z,21.0
2017-09-24T09:41:50.798Z,21.0
2017-09-24T09:42:58.881Z,21.0
2017-09-24T09:44:06.967Z,21.0
2017-09-24T09:45:15.052Z,21.0
2017-09-24T09:46:23.147Z,21.0
2017-09-24T09:47:31.225Z,21.0
2017-09-24T09:48:39.312Z,21.0
2017-09-24T09:49:47.399Z,21.1
2017-09-24T09:50:55.487Z,21.1
2017-09-24T09:52:03.572Z,21.1
2017-09-24T09:53:11.661Z,21.1
2017-09-24T09:54:19.746Z,21.0
2017-09-24T09:55:27.840Z,21.1
2017-09-24T09:56:35.916Z,21.1
2017-09-24T09:57:44.045Z,21.1
2017-09-24T09:58:52.091Z,21.0
2017-09-24T10:00:00.179Z,21.1
2017-09-24T10:01:08.267Z,21.0
2017-09-24T10:02:16.361Z,21.0
2017-09-24T10:03:24.465Z,21.0
2017-09-24T10:04:32.544Z,21.0
2017-09-24T10:05:40.621Z,21.1
2017-09-24T10:06:48.745Z,21.0
2017-09-24T10:07:56.795Z,21.1
2017-09-24T10:09:04.880Z,21.1
2017-09-24T10:10:12.968Z,21.1
2017-09-24T10:11:21.056Z,21.1
2017-09-24T10:12:29.143Z,21.1
2017-09-24T10:13:37.229Z,21.1
2017-09-24T10:14:45.314Z,21.1
2017-09-24T10:15:53.402Z,21.1
2017-09-24T10:17:01.495Z,21.1
2017-09-24T10:18:09.585Z,21.2
2017-09-24T10:19:17.825Z,21.2
2017-09-24T10:20:25.913Z,21.2
2017-09-24T10:21:34.000Z,21.2
2017-09-24T10:22:42.087Z,21.1
2017-09-24T10:23:50.174Z,21.1
2017-09-24T10:24:58.259Z,21.1
2017-09-24T10:26:06.360Z,21.2
2017-09-24T10:27:14.440Z,21.2
2017-09-24T10:28:22.522Z,21.1
2017-09-24T10:29:30.616Z,21.2
2017-09-24T10:30:38.696Z,21.2
2017-09-24T10:31:46.782Z,21.2
2017-09-24T10:32:54.957Z,21.2
2017-09-24T10:34:02.955Z,21.2
2017-09-24T10:35:11.042Z,21.2
2017-09-24T10:36:19.128Z,21.2
2017-09-24T10:37:27.298Z,21.2
2017-09-24T10:38:35.388Z,21.1
2017-09-24T10:39:43.471Z,21.2
2017-09-24T10:40:51.562Z,21.2
2017-09-24T10:41:59.648Z,21.1
2017-09-24T10:43:07.736Z,21.1
2017-09-24T10:44:15.888Z,21.1
2017-09-24T10:45:23.991Z,21.1
2017-09-24T10:46:32.075Z,21.1
2017-09-24T10:47:40.164Z,21.2
2017-09-24T10:48:48.250Z,21.1
2017-09-24T10:49:56.337Z,21.2
2017-09-24T10:51:04.422Z,21.2
2017-09-24T10:52:12.510Z,21.1
2017-09-24T10:53:20.598Z,21.2
2017-09-24T10:54:28.685Z,21.2
2017-09-24T10:55:36.770Z,21.2
2017-09-24T10:56:44.862Z,21.1
2017-09-24T10:57:52.948Z,21.2
2017-09-24T10:59:01.030Z,21.1
2017-09-24T11:00:09.147Z,21.2
2017-09-24T11:01:17.236Z,21.2
2017-09-24T11:02:25.323Z,21.3
2017-09-24T11:03:33.415Z,21.3
2017-09-24T11:04:41.497Z,21.2
2017-09-24T11:05:49.590Z,21.2
2017-09-24T11:06:57.674Z,21.3
2017-09-24T11:08:05.761Z,21.3
2017-09-24T11:09:13.844Z,21.2
2017-09-24T11:10:21.945Z,21.2
2017-09-24T11:11:30.017Z,21.2
2017-09-24T11:12:38.102Z,21.2
2017-09-24T11:13:46.192Z,21.2
2017-09-24T11:14:54.277Z,21.3
2017-09-24T11:16:02.363Z,21.2
2017-09-24T11:17:10.450Z,21.3
2017-09-24T11:18:18.538Z,21.2
2017-09-24T11:19:26.641Z,21.2
2017-09-24T11:20:34.710Z,21.3
2017-09-24T11:21:42.796Z,21.3
2017-09-24T11:22:50.884Z,21.3
2017-09-24T11:23:58.971Z,21.3
2017-09-24T11:25:07.058Z,21.4
2017-09-24T11:26:15.147Z,21.3
2017-09-24T11:27:23.232Z,21.3
2017-09-24T11:28:31.317Z,21.3
2017-09-24T11:29:39.402Z,21.3
2017-09-24T11:30:47.491Z,21.3
2017-09-24T11:31:55.578Z,21.4
2017-09-24T11:33:03.665Z,21.3
2017-09-24T11:34:11.753Z,21.3
2017-09-24T11:35:19.841Z,21.4
2017-09-24T11:36:27.927Z,21.3
2017-09-24T11:37:36.015Z,21.4
2017-09-24T11:38:44.099Z,21.4
2017-09-24T11:39:52.185Z,21.3
2017-09-24T11:41:00.274Z,21.3
2017-09-24T11:42:08.357Z,21.3
2017-09-24T11:43:16.447Z,21.3
2017-09-24T11:44:24.550Z,21.4
2017-09-24T11:45:32.622Z,21.4
2017-09-24T11:46:40.711Z,21.3
2017-09-24T11:47:48.795Z,21.4
2017-09-24T11:48:56.882Z,21.3
2017-09-24T11:50:04.969Z,21.3
2017-09-24T11:51:13.060Z,21.4
2017-09-24T11:52:21.143Z,21.3
2017-09-24T11:53:29.228Z,21.4
2017-09-24T11:54:37.316Z,21.4
2017-09-24T11:55:45.405Z,21.3
2017-09-24T11:56:53.491Z,21.4
2017-09-24T11:58:01.576Z,21.3
2017-09-24T11:59:10.241Z,21.3
2017-09-24T12:00:18.324Z,21.3
2017-09-24T12:01:26.413Z,21.3
2017-09-24T12:02:34.500Z,21.3
2017-09-24T12:03:42.587Z,21.3
2017-09-24T12:04:50.673Z,21.3
2017-09-24T12:05:58.765Z,21.3
2017-09-24T12:07:06.848Z,21.4
2017-09-24T12:08:14.935Z,21.3
2017-09-24T12:09:23.020Z,21.3
2017-09-24T12:10:31.110Z,21.3
2017-09-24T12:11:39.197Z,21.4
2017-09-24T12:12:47.282Z,21.3
2017-09-24T12:13:55.373Z,21.3
2017-09-24T12:15:03.455Z,21.3
2017-09-24T12:16:11.546Z,21.3
2017-09-24T12:17:19.630Z,21.2
2017-09-24T12:18:27.715Z,21.3
2017-09-24T12:19:35.805Z,21.3
2017-09-24T12:20:43.888Z,21.3
2017-09-24T12:21:51.975Z,21.3
2017-09-24T12:23:00.060Z,21.2
2017-09-24T12:24:08.152Z,21.2
2017-09-24T12:25:16.233Z,21.3
2017-09-24T12:26:24.319Z,21.3
2017-09-24T12:27:32.407Z,21.2
2017-09-24T12:28:40.493Z,21.3
2017-09-24T12:29:48.581Z,21.1
2017-09-24T12:30:56.666Z,21.2
2017-09-24T12:32:04.755Z,21.2
2017-09-24T12:33:12.863Z,21.2
2017-09-24T12:34:20.926Z,21.1
2017-09-24T12:35:29.016Z,21.1
2017-09-24T12:36:37.098Z,21.2
2017-09-24T12:37:45.185Z,21.2
2017-09-24T12:38:53.272Z,21.2
2017-09-24T12:40:01.352Z,21.2
2017-09-24T12:41:09.444Z,21.1
2017-09-24T12:42:17.533Z,21.2
2017-09-24T12:43:25.617Z,21.2
2017-09-24T12:44:33.702Z,21.2
2017-09-24T12:45:41.789Z,21.2
2017-09-24T12:46:49.876Z,21.2
2017-09-24T12:47:57.981Z,21.1
2017-09-24T12:49:06.056Z,21.1
2017-09-24T12:50:14.144Z,21.0
2017-09-24T12:51:22.224Z,21.1
2017-09-24T12:52:30.313Z,21.1
2017-09-24T12:53:38.396Z,21.0
2017-09-24T12:54:46.483Z,21.1
2017-09-24T12:55:54.570Z,21.1
2017-09-24T12:57:02.659Z,21.1
2017-09-24T12:58:10.743Z,21.1
2017-09-24T12:59:18.832Z,21.1
2017-09-24T13:00:26.918Z,21.1
2017-09-24T13:01:35.004Z,21.1
2017-09-24T13:02:43.091Z,21.1
2017-09-24T13:03:51.175Z,21.1
2017-09-24T13:04:59.264Z,21.0
2017-09-24T13:06:07.347Z,21.0
2017-09-24T13:07:15.437Z,21.0
2017-09-24T13:08:23.524Z,21.1
2017-09-24T13:09:31.609Z,21.1
2017-09-24T13:10:39.696Z,21.0
2017-09-24T13:11:47.801Z,21.0
2017-09-24T13:12:55.868Z,21.1
2017-09-24T13:14:03.953Z,20.9
2017-09-24T13:15:12.051Z,21.0
2017-09-24T13:16:20.139Z,21.1
2017-09-24T13:17:28.253Z,20.9
2017-09-24T13:18:36.309Z,21.0
2017-09-24T13:19:44.394Z,20.9
2017-09-24T13:20:52.480Z,21.1
2017-09-24T13:22:00.565Z,21.0
2017-09-24T13:23:08.650Z,21.0
2017-09-24T13:24:16.742Z,20.9
2017-09-24T13:25:24.836Z,21.0
2017-09-24T13:26:32.912Z,21.0
2017-09-24T13:27:41.010Z,20.9
2017-09-24T13:28:49.085Z,20.9
2017-09-24T13:29:57.170Z,20.9
2017-09-24T13:31:05.258Z,20.9
2017-09-24T13:32:13.343Z,20.9
2017-09-24T13:33:21.428Z,21.0
2017-09-24T13:34:29.522Z,21.0
2017-09-24T13:35:37.599Z,20.9
2017-09-24T13:36:45.688Z,21.0
2017-09-24T13:37:53.776Z,21.0
2017-09-24T13:39:01.861Z,21.0
2017-09-24T13:40:09.952Z,21.0
2017-09-24T13:41:18.042Z,20.9
2017-09-24T13:42:26.126Z,20.9
2017-09-24T13:43:34.211Z,20.9
2017-09-24T13:44:42.297Z,21.0
2017-09-24T13:45:50.386Z,20.9
2017-09-24T13:46:58.472Z,21.0
2017-09-24T13:48:06.557Z,20.9
2017-09-24T13:49:14.642Z,20.9
2017-09-24T13:50:22.729Z,21.0
2017-09-24T13:51:30.814Z,21.0
2017-09-24T13:52:38.901Z,21.0
2017-09-24T13:53:46.988Z,20.9
2017-09-24T13:54:55.074Z,20.9
2017-09-24T13:56:03.159Z,21.0
2017-09-24T13:57:11.247Z,21.0
2017-09-24T13:58:19.334Z,21.0
2017-09-24T13:59:27.495Z,21.0
2017-09-24T14:00:35.506Z,20.9
2017-09-24T14:01:43.592Z,20.9
2017-09-24T14:02:51.680Z,21.0
2017-09-24T14:03:59.765Z,21.1
2017-09-24T14:05:07.855Z,20.9
2017-09-24T14:06:15.941Z,21.1
2017-09-24T14:07:24.029Z,21.0
2017-09-24T14:08:32.122Z,21.0
2017-09-24T14:09:40.201Z,21.0
2017-09-24T14:10:48.286Z,21.0
2017-09-24T14:11:56.373Z,21.1
2017-09-24T14:13:04.466Z,20.9
2017-09-24T14:14:12.554Z,21.0
2017-09-24T14:15:20.639Z,21.0
2017-09-24T14:16:28.727Z,20.9
2017-09-24T14:17:36.815Z,20.9
2017-09-24T14:18:44.901Z,21.0
2017-09-24T14:19:52.986Z,20.9
2017-09-24T14:21:01.072Z,20.9
2017-09-24T14:22:09.158Z,21.0
2017-09-24T14:23:17.284Z,21.0
2017-09-24T14:24:25.330Z,20.9
2017-09-24T14:25:33.422Z,21.0
2017-09-24T14:26:41.506Z,20.9
2017-09-24T14:27:49.589Z,21.0
2017-09-24T14:28:57.763Z,20.9
2017-09-24T14:30:05.764Z,20.9
2017-09-24T14:31:13.849Z,20.9
2017-09-24T14:32:21.938Z,20.9
2017-09-24T14:33:30.029Z,20.9
2017-09-24T14:34:38.111Z,20.9
2017-09-24T14:35:46.197Z,20.9
2017-09-24T14:36:54.303Z,20.9
2017-09-24T14:38:02.370Z,21.0
2017-09-24T14:39:10.457Z,20.9
2017-09-24T14:40:18.540Z,20.9
2017-09-24T14:41:26.627Z,20.9
2017-09-24T14:42:34.715Z,20.9
2017-09-24T14:43:42.808Z,20.9
2017-09-24T14:44:50.888Z,20.9
2017-09-24T14:45:58.975Z,20.9
2017-09-24T14:47:07.062Z,20.9
2017-09-24T14:48:15.146Z,20.9
2017-09-24T14:49:23.239Z,20.9
2017-09-24T14:50:31.327Z,20.9
2017-09-24T14:51:39.415Z,20.9
2017-09-24T14:52:47.500Z,20.9
2017-09-24T14:53:55.587Z,20.9
2017-09-24T14:55:03.675Z,20.9
2017-09-24T14:56:11.761Z,20.9
2017-09-24T14:57:19.866Z,20.9
2017-09-24T14:58:27.933Z,20.9
2017-09-24T14:59:36.020Z,20.9
2017-09-24T15:00:44.107Z,20.9
2017-09-24T15:01:52.194Z,20.8
2017-09-24T15:03:00.280Z,20.9
2017-09-24T15:04:08.365Z,20.9
2017-09-24T15:05:16.454Z,20.9
2017-09-24T15:06:24.537Z,20.9